Time;durP1;ratioP1;P1;durP2;ratioP2;P2;SDS_P1;SDS_P2;PMS_P1;PMS_P2;Temp;Humidity;BMP_temperature;BMP_pressure;BME280_temperature;BME280_humidity;BME280_pressure;Samples;Min_cycle;Max_cycle;Signal;HPM_P1;HPM_P2
2022/03/03 00:01:50;;;;;;;16.63;8.37;;;;;;;-2.57;76.08;99064.22;5014351;28;20041;-58
2022/03/03 00:04:16;;;;;;;14.97;8.33;;;;;;;-2.56;76.96;99060.06;5015397;28;20164;-56
2022/03/03 00:06:41;;;;;;;44.23;38.10;;;;;;;-2.59;78.19;99057.47;5014606;28;20029;-56
2022/03/03 00:09:07;;;;;;;32.83;24.33;;;;;;;-2.57;78.67;99048.31;5017624;28;20093;-55
2022/03/03 00:11:32;;;;;;;180.10;73.97;;;;;;;-2.65;78.98;99044.66;5015752;28;20060;-58
2022/03/03 00:13:58;;;;;;;140.33;66.90;;;;;;;-2.71;79.81;99044.41;5017556;28;20502;-57
2022/03/03 00:16:27;;;;;;;126.27;66.37;;;;;;;-2.88;81.50;99047.09;5018014;28;20065;-57
2022/03/03 00:18:52;;;;;;;110.17;63.47;;;;;;;-2.98;83.17;99047.53;5016351;28;20074;-55
2022/03/03 00:21:18;;;;;;;101.17;59.10;;;;;;;-2.94;83.82;99046.88;5019047;28;20472;-59
2022/03/03 00:23:43;;;;;;;76.97;52.73;;;;;;;-2.94;83.57;99044.38;5016039;28;20393;-57
2022/03/03 00:26:09;;;;;;;70.90;53.03;;;;;;;-2.85;85.09;99042.22;5018416;28;20392;-57
2022/03/03 00:28:34;;;;;;;64.37;49.80;;;;;;;-2.68;82.27;99039.53;5014542;28;20156;-58
2022/03/03 00:31:00;;;;;;;142.93;67.20;;;;;;;-2.65;80.95;99030.47;5011714;28;20114;-57
2022/03/03 00:33:26;;;;;;;139.77;68.60;;;;;;;-2.71;81.07;99031.84;5016993;28;20047;-58
2022/03/03 00:35:51;;;;;;;130.60;65.53;;;;;;;-2.40;79.77;99032.25;5016924;28;20132;-58
2022/03/03 00:38:17;;;;;;;115.57;62.83;;;;;;;-2.46;79.03;99020.31;5013126;28;20045;-57
2022/03/03 00:40:42;;;;;;;112.13;63.63;;;;;;;-2.44;79.00;99037.97;5016174;28;20048;-56
2022/03/03 00:43:08;;;;;;;102.27;59.93;;;;;;;-2.41;78.91;99038.06;5014080;28;20041;-59
2022/03/03 00:45:35;;;;;;;86.80;56.57;;;;;;;-2.40;78.61;99035.63;5014721;28;20041;-59
2022/03/03 00:48:01;;;;;;;73.57;53.17;;;;;;;-2.55;79.08;99027.53;5015103;28;20045;-59
2022/03/03 00:50:27;;;;;;;70.47;51.20;;;;;;;-2.80;80.62;99019.84;5029284;28;20041;-56
2022/03/03 00:52:52;;;;;;;67.27;51.87;;;;;;;-2.90;81.86;99028.63;5015639;28;20104;-58
2022/03/03 00:55:18;;;;;;;61.27;49.33;;;;;;;-2.97;83.13;99024.16;5015294;28;20038;-59
2022/03/03 00:57:43;;;;;;;70.50;53.07;;;;;;;-2.95;83.94;99026.72;5012242;28;20153;-58
2022/03/03 01:00:09;;;;;;;46.77;40.67;;;;;;;-3.10;83.95;99011.09;5014146;28;20029;-58
2022/03/03 01:02:35;;;;;;;42.50;37.03;;;;;;;-3.15;85.80;99015.06;5013809;28;20104;-58
2022/03/03 01:05:01;;;;;;;35.07;31.50;;;;;;;-3.20;86.29;99022.38;5014482;28;20464;-58
2022/03/03 01:07:27;;;;;;;37.17;32.07;;;;;;;-3.26;86.46;99017.09;5020348;28;20107;-57
2022/03/03 01:09:53;;;;;;;36.93;29.77;;;;;;;-3.30;86.90;99020.28;5015463;28;20469;-58
2022/03/03 01:12:19;;;;;;;52.70;43.70;;;;;;;-3.39;87.76;99005.72;5018093;28;20054;-58
2022/03/03 01:14:44;;;;;;;56.50;41.57;;;;;;;-3.36;88.14;99008.38;5016015;28;20559;-59
2022/03/03 01:17:10;;;;;;;51.63;38.97;;;;;;;-3.44;89.42;99006.34;5016124;28;20064;-57
2022/03/03 01:19:35;;;;;;;81.90;55.63;;;;;;;-3.47;90.35;99001.19;5015069;28;20077;-59
2022/03/03 01:22:01;;;;;;;98.37;60.37;;;;;;;-3.53;91.65;99005.94;5015342;28;20056;-59
2022/03/03 01:24:27;;;;;;;107.57;62.57;;;;;;;-3.57;91.59;98999.97;5013162;28;20460;-58
2022/03/03 01:26:52;;;;;;;101.60;60.80;;;;;;;-3.62;92.46;99001.41;5015990;28;20046;-58
2022/03/03 01:29:17;;;;;;;97.70;59.60;;;;;;;-3.70;93.81;99000.22;5015008;28;20042;-59
2022/03/03 01:31:43;;;;;;;92.27;58.40;;;;;;;-3.72;94.91;99000.16;5012910;28;20046;-58
2022/03/03 01:34:08;;;;;;;75.47;52.47;;;;;;;-3.53;94.06;98996.78;5013355;28;20030;-59
2022/03/03 01:36:35;;;;;;;78.13;52.27;;;;;;;-3.28;92.54;98996.16;5013615;28;20045;-57
2022/03/03 01:39:01;;;;;;;74.03;51.20;;;;;;;-3.21;89.72;98995.59;5018085;28;20042;-58
2022/03/03 01:41:27;;;;;;;87.90;55.33;;;;;;;-3.14;88.96;98987.50;5015288;28;20050;-59
2022/03/03 01:43:52;;;;;;;65.20;49.30;;;;;;;-2.87;87.37;98982.75;5015110;28;20056;-55
2022/03/03 01:46:18;;;;;;;78.87;52.73;;;;;;;-2.67;85.03;98981.03;5017430;28;20034;-58
2022/03/03 01:48:44;;;;;;;115.10;61.40;;;;;;;-2.22;82.18;98982.75;5012853;28;20033;-58
2022/03/03 01:51:10;;;;;;;109.03;59.90;;;;;;;-2.08;78.70;98984.09;5012436;28;20049;-58
2022/03/03 01:53:37;;;;;;;122.47;65.53;;;;;;;-1.87;76.80;98977.31;5020545;28;20087;-58
2022/03/03 01:56:02;;;;;;;152.23;70.43;;;;;;;-1.75;74.53;98971.88;5017689;28;20127;-58
2022/03/03 01:58:28;;;;;;;169.80;74.00;;;;;;;-1.72;73.52;98971.97;5018804;28;20699;-59
2022/03/03 02:00:53;;;;;;;187.83;78.47;;;;;;;-1.72;72.95;98959.41;5019695;28;20097;-59
2022/03/03 02:03:20;;;;;;;271.30;88.03;;;;;;;-1.62;72.15;98958.94;5020171;28;20052;-58
2022/03/03 02:05:45;;;;;;;243.27;93.97;;;;;;;-1.59;71.55;98960.69;5019107;28;20075;-57
2022/03/03 02:08:10;;;;;;;302.37;95.30;;;;;;;-1.49;69.78;98956.03;5015765;28;20412;-59
2022/03/03 02:10:36;;;;;;;322.33;96.20;;;;;;;-1.39;69.19;98942.09;5013640;28;20042;-57
2022/03/03 02:13:01;;;;;;;231.03;87.67;;;;;;;-1.33;68.08;98951.50;5014766;28;20061;-59
2022/03/03 02:15:27;;;;;;;154.67;76.47;;;;;;;-1.30;67.62;98952.44;5015746;28;20049;-57
2022/03/03 02:17:52;;;;;;;284.27;92.23;;;;;;;-1.18;66.55;98954.50;5017385;28;20681;-57
2022/03/03 02:20:21;;;;;;;171.90;79.90;;;;;;;-1.08;65.29;98954.00;5020380;28;20124;-58
2022/03/03 02:22:47;;;;;;;183.23;79.60;;;;;;;-1.11;65.78;98958.94;5016000;28;20052;-59
2022/03/03 02:25:12;;;;;;;162.97;77.97;;;;;;;-1.15;66.01;98950.44;5017273;28;20037;-59
2022/03/03 02:27:37;;;;;;;151.17;78.67;;;;;;;-1.18;65.77;98942.78;5025416;28;20052;-59
2022/03/03 02:30:04;;;;;;;130.07;74.80;;;;;;;-1.17;65.61;98943.63;5014736;28;20100;-59
2022/03/03 02:32:29;;;;;;;125.00;72.67;;;;;;;-1.39;65.80;98932.88;5017066;28;20048;-58
2022/03/03 02:34:54;;;;;;;129.27;74.17;;;;;;;-1.34;66.96;98942.25;5018408;28;20045;-58
2022/03/03 02:37:20;;;;;;;140.43;79.53;;;;;;;-1.39;66.85;98935.41;5016002;28;20081;-57
2022/03/03 02:39:45;;;;;;;107.90;68.33;;;;;;;-1.42;66.94;98942.00;5015443;28;20045;-57
2022/03/03 02:42:11;;;;;;;124.83;71.50;;;;;;;-1.63;67.74;98937.13;5017461;28;20041;-59
2022/03/03 02:44:36;;;;;;;123.43;74.77;;;;;;;-1.82;69.58;98943.97;5019387;28;20076;-57
2022/03/03 02:47:02;;;;;;;121.23;74.10;;;;;;;-2.04;71.85;98940.72;5018667;28;20049;-57
2022/03/03 02:49:27;;;;;;;110.70;69.73;;;;;;;-2.15;73.65;98931.94;5014477;28;20037;-59
2022/03/03 02:51:53;;;;;;;103.13;69.47;;;;;;;-2.23;74.75;98935.84;5015358;28;20037;-59
2022/03/03 02:54:18;;;;;;;95.10;65.07;;;;;;;-2.28;75.82;98936.47;5018208;28;20251;-59
2022/03/03 02:59:28;;;;;;;63.50;50.70;;;;;;;-2.38;77.14;98930.28;5018347;28;20048;-59
2022/03/03 03:01:53;;;;;;;71.53;55.70;;;;;;;-2.25;77.29;98921.53;5017070;28;20050;-59
2022/03/03 03:04:19;;;;;;;67.77;53.73;;;;;;;-2.35;77.62;98926.22;5016627;28;20048;-58
2022/03/03 03:06:44;;;;;;;62.80;51.43;;;;;;;-2.27;77.10;98918.09;5001125;28;20050;-58
2022/03/03 03:09:10;;;;;;;73.93;54.83;;;;;;;-2.32;77.72;98911.25;5016647;28;20048;-59
2022/03/03 03:11:35;;;;;;;86.60;61.00;;;;;;;-2.60;81.32;98906.03;5017413;28;20037;-59
2022/03/03 03:14:01;;;;;;;193.83;82.80;;;;;;;-2.74;83.64;98908.81;5024120;28;20037;-56
2022/03/03 03:16:26;;;;;;;140.87;72.73;;;;;;;-2.82;84.72;98916.91;5024020;28;20137;-57
2022/03/03 03:18:52;;;;;;;145.30;72.33;;;;;;;-2.95;86.79;98911.38;5017552;28;20037;-59
2022/03/03 03:21:17;;;;;;;174.03;78.67;;;;;;;-3.12;88.25;98907.34;5017985;28;20060;-58
2022/03/03 03:23:42;;;;;;;119.47;65.50;;;;;;;-3.13;89.44;98909.00;5016475;28;20092;-58
2022/03/03 03:26:08;;;;;;;80.67;55.03;;;;;;;-3.22;89.51;98907.81;5019612;28;20048;-55
2022/03/03 03:28:34;;;;;;;58.40;46.47;;;;;;;-3.15;88.53;98905.59;5019478;28;20056;-55
2022/03/03 03:30:59;;;;;;;59.70;47.70;;;;;;;-2.90;85.33;98904.88;5018036;28;20041;-58
2022/03/03 03:33:25;;;;;;;86.90;58.57;;;;;;;-2.52;80.93;98904.66;5014543;28;20073;-59
2022/03/03 03:35:50;;;;;;;79.97;54.80;;;;;;;-2.35;77.30;98897.75;5015494;28;20048;-58
2022/03/03 03:38:15;;;;;;;115.53;61.10;;;;;;;-2.26;75.33;98893.03;5014777;28;20053;-57
2022/03/03 03:40:41;;;;;;;120.40;65.13;;;;;;;-2.32;76.23;98887.78;5017699;28;20046;-57
2022/03/03 03:43:06;;;;;;;115.43;65.10;;;;;;;-2.39;76.59;98884.22;5016128;28;20154;-56
2022/03/03 03:45:34;;;;;;;123.37;65.17;;;;;;;-2.36;76.67;98889.34;5017320;28;20427;-56
2022/03/03 03:47:59;;;;;;;126.10;66.30;;;;;;;-2.20;75.01;98888.22;5016551;28;20038;-55
2022/03/03 03:50:25;;;;;;;95.47;61.00;;;;;;;-2.23;75.04;98890.63;5013106;28;20255;-56
2022/03/03 03:52:50;;;;;;;140.00;68.17;;;;;;;-2.19;74.30;98884.91;5013432;28;20065;-56
2022/03/03 03:55:16;;;;;;;164.67;75.23;;;;;;;-2.19;73.00;98882.41;5013807;28;20053;-57
2022/03/03 03:57:41;;;;;;;179.17;76.17;;;;;;;-2.16;72.81;98877.47;5018513;28;20037;-56
2022/03/03 04:00:15;;;;;;;176.30;77.67;;;;;;;-2.23;73.05;98874.72;5013800;28;20046;-58
2022/03/03 04:02:42;;;;;;;114.63;64.00;;;;;;;-2.39;73.94;98869.16;5016050;28;20125;-57
2022/03/03 04:05:08;;;;;;;152.67;69.67;;;;;;;-2.46;74.45;98864.72;5014969;28;20846;-57
2022/03/03 04:07:34;;;;;;;96.87;59.13;;;;;;;-2.64;75.44;98868.22;5012606;28;20042;-58
2022/03/03 04:09:59;;;;;;;194.23;78.93;;;;;;;-2.70;78.24;98871.34;5013531;28;20040;-58
2022/03/03 04:12:25;;;;;;;160.13;74.13;;;;;;;-2.86;81.14;98869.94;5015245;28;20089;-56
2022/03/03 04:14:51;;;;;;;125.03;65.00;;;;;;;-2.93;81.48;98869.66;5017160;28;20459;-57
2022/03/03 04:17:16;;;;;;;170.23;72.97;;;;;;;-3.08;81.81;98861.53;5018233;28;20042;-56
2022/03/03 04:19:41;;;;;;;147.63;67.63;;;;;;;-3.23;83.16;98859.34;5015222;28;20395;-54
2022/03/03 04:22:07;;;;;;;179.47;75.63;;;;;;;-3.35;85.11;98859.69;5010254;28;20053;-54
2022/03/03 04:24:32;;;;;;;188.73;75.70;;;;;;;-3.45;85.96;98856.78;5013020;28;20049;-57
2022/03/03 04:26:58;;;;;;;288.17;90.17;;;;;;;-3.58;87.64;98855.44;5016566;28;20380;-54
2022/03/03 04:29:24;;;;;;;198.30;75.93;;;;;;;-3.70;90.19;98853.31;5015515;28;20553;-54
2022/03/03 04:31:51;;;;;;;280.37;87.87;;;;;;;-3.80;91.32;98845.34;5017180;28;20049;-56
2022/03/03 04:34:17;;;;;;;245.93;85.63;;;;;;;-3.86;92.04;98850.94;5017848;28;20033;-54
2022/03/03 04:36:42;;;;;;;250.17;83.07;;;;;;;-3.97;92.18;98847.16;5018505;28;20510;-55
2022/03/03 04:39:07;;;;;;;203.93;78.33;;;;;;;-3.99;93.86;98853.78;5020228;28;20041;-56
2022/03/03 04:41:33;;;;;;;252.17;83.80;;;;;;;-4.02;95.46;98858.63;5021839;28;20092;-57
2022/03/03 04:43:58;;;;;;;214.43;78.37;;;;;;;-4.09;95.87;98854.16;5021207;28;20034;-57
2022/03/03 04:46:24;;;;;;;236.63;81.37;;;;;;;-4.11;97.15;98857.38;5023737;28;20094;-57
2022/03/03 04:48:49;;;;;;;223.00;79.37;;;;;;;-4.16;97.78;98860.53;5019414;28;20132;-57
2022/03/03 04:51:14;;;;;;;225.60;79.60;;;;;;;-4.24;97.78;98851.00;5015133;28;20107;-58
2022/03/03 04:53:40;;;;;;;219.50;78.53;;;;;;;-4.22;98.99;98855.31;5016206;28;20049;-58
2022/03/03 04:56:06;;;;;;;187.23;75.13;;;;;;;-4.25;99.37;98859.34;5020646;28;20045;-58
2022/03/03 04:58:31;;;;;;;233.43;80.70;;;;;;;-4.31;99.24;98854.06;5015116;28;20033;-58
2022/03/03 05:00:57;;;;;;;236.23;82.63;;;;;;;-4.33;99.18;98858.97;5013480;28;20045;-57
2022/03/03 05:03:22;;;;;;;244.23;83.73;;;;;;;-4.35;100.00;98852.22;5014491;28;20092;-57
2022/03/03 05:05:48;;;;;;;337.10;93.77;;;;;;;-4.42;100.00;98853.59;5015161;28;20060;-59
2022/03/03 05:08:13;;;;;;;300.40;90.53;;;;;;;-4.43;100.00;98846.03;5012171;28;20145;-58
2022/03/03 05:10:38;;;;;;;320.57;90.50;;;;;;;-4.47;100.00;98851.69;5012802;28;20049;-58
2022/03/03 05:13:04;;;;;;;323.07;90.57;;;;;;;-4.51;100.00;98847.34;5015264;28;20053;-59
2022/03/03 05:15:30;;;;;;;259.57;83.70;;;;;;;-4.55;100.00;98841.38;5014938;28;20038;-58
2022/03/03 05:17:55;;;;;;;271.40;86.10;;;;;;;-4.58;100.00;98837.88;5015227;28;20081;-58
2022/03/03 05:20:21;;;;;;;298.93;89.20;;;;;;;-4.56;100.00;98838.78;5015408;28;20042;-58
2022/03/03 05:22:46;;;;;;;332.97;94.37;;;;;;;-4.54;100.00;98835.53;5016688;28;20402;-58
2022/03/03 05:25:12;;;;;;;284.73;84.47;;;;;;;-4.60;100.00;98832.78;5013511;28;20041;-58
2022/03/03 05:27:39;;;;;;;294.60;89.23;;;;;;;-4.62;100.00;98837.72;5018270;28;20042;-58
2022/03/03 05:30:06;;;;;;;276.93;86.40;;;;;;;-4.62;100.00;98832.72;5019662;28;20045;-59
2022/03/03 05:32:32;;;;;;;304.13;88.70;;;;;;;-4.70;100.00;98830.69;5018051;28;20296;-56
2022/03/03 05:34:57;;;;;;;300.50;89.50;;;;;;;-4.75;100.00;98837.97;5018037;28;20655;-55
2022/03/03 05:37:24;;;;;;;253.20;83.53;;;;;;;-4.75;100.00;98832.97;5016815;28;20042;-58
2022/03/03 05:39:53;;;;;;;316.47;94.00;;;;;;;-4.76;100.00;98837.94;5015632;28;20130;-59
2022/03/03 05:42:20;;;;;;;263.67;85.20;;;;;;;-4.77;100.00;98834.56;5016497;28;20368;-56
2022/03/03 05:44:47;;;;;;;290.50;87.70;;;;;;;-4.76;100.00;98833.78;5018426;28;20284;-59
2022/03/03 05:47:13;;;;;;;274.87;85.67;;;;;;;-4.73;100.00;98830.56;5015375;28;20290;-59
2022/03/03 05:49:40;;;;;;;278.47;85.67;;;;;;;-4.51;100.00;98832.34;5018807;28;20269;-56
2022/03/03 05:52:06;;;;;;;275.73;84.33;;;;;;;-4.29;100.00;98828.31;5017830;28;20287;-58
2022/03/03 05:54:32;;;;;;;244.73;80.53;;;;;;;-4.13;100.00;98831.44;5018339;28;20904;-58
2022/03/03 05:57:00;;;;;;;216.43;79.37;;;;;;;-4.14;100.00;98828.09;5016852;28;20288;-59
2022/03/03 05:59:31;;;;;;;251.70;80.33;;;;;;;-4.15;100.00;98836.38;5016768;28;20077;-58
2022/03/03 06:01:57;;;;;;;234.13;78.33;;;;;;;-4.19;100.00;98825.41;5021131;28;20320;-57
2022/03/03 06:04:27;;;;;;;217.90;77.23;;;;;;;-4.15;100.00;98827.22;5021711;28;20276;-58
2022/03/03 06:06:59;;;;;;;224.17;80.20;;;;;;;-4.14;100.00;98830.59;5021037;28;20375;-59
2022/03/03 06:09:30;;;;;;;234.00;78.33;;;;;;;-4.13;100.00;98829.81;5019835;28;20272;-58
2022/03/03 06:12:39;;;;;;;230.67;78.73;;;;;;;-4.08;100.00;98828.34;5021329;28;20292;-59
2022/03/03 06:15:06;;;;;;;213.43;77.23;;;;;;;-3.99;100.00;98827.88;5012444;28;20322;-57
2022/03/03 06:17:32;;;;;;;214.53;78.77;;;;;;;-3.93;100.00;98826.47;5019170;28;20264;-59
2022/03/03 06:20:01;;;;;;;204.73;76.57;;;;;;;-3.79;100.00;98837.91;5016890;28;20034;-59
2022/03/03 06:22:27;;;;;;;200.60;76.67;;;;;;;-3.67;99.92;98839.19;5018457;28;20049;-56
2022/03/03 06:24:53;;;;;;;201.53;76.97;;;;;;;-3.53;99.58;98843.09;5017044;28;20626;-59
2022/03/03 06:27:19;;;;;;;203.40;80.00;;;;;;;-3.39;98.39;98841.97;5023139;28;20506;-58
2022/03/03 06:29:45;;;;;;;185.93;76.57;;;;;;;-3.20;97.78;98829.34;5022872;28;20068;-58
2022/03/03 06:32:11;;;;;;;184.80;76.03;;;;;;;-2.99;95.32;98836.81;5024744;28;20046;-59
2022/03/03 06:34:37;;;;;;;196.87;79.37;;;;;;;-2.88;93.35;98830.53;5019345;28;20105;-59
2022/03/03 06:37:04;;;;;;;178.03;78.63;;;;;;;-2.73;92.44;98835.28;5018671;28;20117;-59
2022/03/03 06:39:29;;;;;;;153.40;76.60;;;;;;;-2.57;91.53;98842.53;5019383;28;20470;-59
2022/03/03 06:41:55;;;;;;;148.53;74.17;;;;;;;-2.44;90.54;98842.19;5016601;28;20065;-56
2022/03/03 06:44:20;;;;;;;148.87;75.37;;;;;;;-2.32;89.57;98840.09;5018359;28;20042;-57
2022/03/03 06:46:47;;;;;;;139.17;71.17;;;;;;;-2.17;87.99;98834.75;5019323;28;20068;-57
2022/03/03 06:49:12;;;;;;;148.93;74.80;;;;;;;-2.07;86.67;98837.63;5017034;28;20408;-57
2022/03/03 06:51:40;;;;;;;136.10;74.37;;;;;;;-1.94;86.90;98832.22;5014146;28;20042;-57
2022/03/03 06:54:13;;;;;;;131.73;73.87;;;;;;;-1.80;85.83;98835.19;5015567;28;20068;-58
2022/03/03 06:56:47;;;;;;;122.30;70.27;;;;;;;-1.69;84.71;98827.97;5016199;28;20044;-58
2022/03/03 06:59:21;;;;;;;124.77;70.70;;;;;;;-1.51;84.22;98831.09;5019594;28;20488;-58
2022/03/03 07:01:48;;;;;;;110.40;70.20;;;;;;;-1.40;83.73;98839.84;5016336;28;20038;-59
2022/03/03 07:04:15;;;;;;;120.07;72.30;;;;;;;-1.20;82.92;98838.78;5019288;28;20040;-59
2022/03/03 07:06:42;;;;;;;113.83;73.60;;;;;;;-1.07;81.97;98840.00;5017880;28;20033;-59
2022/03/03 07:09:08;;;;;;;100.93;68.87;;;;;;;-0.96;79.45;98831.97;5013027;28;20491;-58
2022/03/03 07:11:34;;;;;;;119.13;74.93;;;;;;;-0.76;77.29;98835.03;5014754;28;20038;-59
2022/03/03 07:14:00;;;;;;;102.20;73.30;;;;;;;-0.62;75.72;98827.88;5015978;28;20057;-59
2022/03/03 07:16:35;;;;;;;122.67;77.77;;;;;;;-0.44;73.39;98830.06;5016521;28;20068;-60
2022/03/03 07:19:03;;;;;;;128.55;78.95;;;;;;;-0.29;72.36;98841.41;5013703;28;20033;-59
2022/03/03 07:21:41;;;;;;;121.43;80.50;;;;;;;-0.13;71.24;98840.97;5015821;28;20435;-59
2022/03/03 07:24:28;;;;;;;108.17;74.10;;;;;;;0.07;68.22;98845.69;5015072;28;20049;-59
2022/03/03 07:26:59;;;;;;;96.73;72.93;;;;;;;0.21;66.55;98837.66;5015692;28;20041;-60
2022/03/03 07:29:33;;;;;;;107.10;79.07;;;;;;;0.40;66.23;98844.03;5014285;28;20152;-59
2022/03/03 07:32:04;;;;;;;87.15;71.68;;;;;;;0.38;64.08;98845.66;5015878;28;20053;-59
2022/03/03 07:34:33;;;;;;;88.20;71.13;;;;;;;0.51;63.41;98830.00;5015194;28;20527;-59
2022/03/03 07:37:05;;;;;;;93.30;83.93;;;;;;;0.70;62.40;98832.13;5014364;28;20488;-58
2022/03/03 07:39:39;;;;;;;79.17;70.87;;;;;;;0.78;61.07;98833.16;5015535;28;20399;-60
2022/03/03 07:42:04;;;;;;;73.57;66.00;;;;;;;0.91;60.30;98832.63;5013028;28;20103;-57
2022/03/03 07:44:29;;;;;;;79.67;71.23;;;;;;;1.15;59.99;98831.44;5014937;28;20038;-56
2022/03/03 07:46:56;;;;;;;85.37;76.43;;;;;;;1.31;59.18;98833.47;5014944;28;20076;-59
2022/03/03 07:49:21;;;;;;;92.13;78.43;;;;;;;1.48;58.32;98827.09;5014099;28;20042;-58
2022/03/03 07:51:49;;;;;;;80.10;72.10;;;;;;;1.65;57.53;98824.91;5014806;28;20047;-59
2022/03/03 07:54:16;;;;;;;77.27;69.97;;;;;;;1.76;56.21;98816.69;5014205;28;20038;-59
2022/03/03 07:56:47;;;;;;;83.57;75.10;;;;;;;1.63;52.86;98813.91;5015112;28;20080;-58
2022/03/03 07:59:17;;;;;;;79.47;72.03;;;;;;;1.88;53.21;98810.16;5014479;28;20033;-57
2022/03/03 08:01:45;;;;;;;80.93;73.03;;;;;;;2.21;52.89;98814.13;5013721;28;20046;-58
2022/03/03 08:04:14;;;;;;;84.80;76.53;;;;;;;2.59;51.91;98807.13;5015852;28;20565;-59
2022/03/03 08:06:40;;;;;;;87.47;78.80;;;;;;;2.79;50.68;98807.47;5014098;28;20098;-58
2022/03/03 08:09:07;;;;;;;75.13;67.83;;;;;;;3.02;50.20;98795.09;5014600;28;20049;-60
2022/03/03 08:11:39;;;;;;;89.13;80.77;;;;;;;3.23;49.69;98797.91;5014799;28;20034;-60
2022/03/03 08:14:05;;;;;;;106.63;96.33;;;;;;;3.42;48.90;98794.78;5011572;28;20385;-60
2022/03/03 08:16:35;;;;;;;115.13;104.53;;;;;;;3.46;48.43;98800.72;5012510;28;20072;-60
2022/03/03 08:19:02;;;;;;;100.47;90.83;;;;;;;3.53;48.04;98798.28;5010628;28;20042;-58
2022/03/03 08:21:29;;;;;;;88.63;80.60;;;;;;;3.54;48.06;98796.59;5012700;28;20064;-59
2022/03/03 08:23:56;;;;;;;92.43;84.00;;;;;;;3.54;48.29;98794.91;5011271;28;20459;-58
2022/03/03 08:26:22;;;;;;;78.80;71.20;;;;;;;3.59;48.20;98795.81;5010010;28;20539;-57
2022/03/03 08:28:47;;;;;;;72.83;65.70;;;;;;;3.60;47.94;98789.94;5009707;28;20086;-60
2022/03/03 08:31:19;;;;;;;50.50;42.43;;;;;;;3.69;47.83;98797.63;5010367;28;20340;-58
2022/03/03 08:33:53;;;;;;;44.40;32.77;;;;;;;3.71;47.51;98796.78;5011471;28;20212;-57
2022/03/03 08:36:50;;;;;;;49.27;33.43;;;;;;;3.74;47.35;98792.59;5009828;28;20124;-58
2022/03/03 08:39:17;;;;;;;41.83;25.23;;;;;;;3.71;47.64;98797.63;5008946;28;20463;-57
2022/03/03 08:41:44;;;;;;;45.53;25.67;;;;;;;3.84;47.71;98786.78;5010204;28;20041;-60
2022/03/03 08:44:11;;;;;;;40.77;23.43;;;;;;;3.83;47.18;98776.63;5008837;28;20459;-59
2022/03/03 08:46:41;;;;;;;33.63;19.03;;;;;;;3.79;46.98;98775.75;5011389;28;20135;-58
2022/03/03 08:49:08;;;;;;;31.30;18.73;;;;;;;3.90;47.72;98773.34;5010806;28;20131;-59
2022/03/03 08:51:36;;;;;;;33.07;19.20;;;;;;;3.97;47.10;98775.09;5010595;28;20073;-58
2022/03/03 08:54:02;;;;;;;17.03;11.37;;;;;;;4.10;46.75;98761.69;5011899;28;20092;-60
2022/03/03 08:56:27;;;;;;;23.80;12.97;;;;;;;4.31;46.91;98769.47;5013418;28;20063;-59
2022/03/03 08:58:53;;;;;;;25.67;11.60;;;;;;;4.42;46.45;98756.84;5013504;28;20041;-58
2022/03/03 09:01:20;;;;;;;25.30;12.93;;;;;;;4.82;45.63;98756.28;5013325;28;20065;-60
2022/03/03 09:03:46;;;;;;;16.77;11.17;;;;;;;4.97;45.66;98746.19;5014212;28;20133;-59
2022/03/03 09:06:20;;;;;;;24.20;12.93;;;;;;;5.23;45.54;98746.31;5013554;28;20052;-60
2022/03/03 09:08:45;;;;;;;20.33;10.50;;;;;;;5.47;44.33;98743.84;5012647;28;20593;-58
2022/03/03 09:11:11;;;;;;;22.77;11.80;;;;;;;5.63;44.00;98742.22;5012799;28;20049;-59
2022/03/03 09:13:37;;;;;;;15.77;10.33;;;;;;;5.67;43.60;98737.97;5013382;28;20508;-59
2022/03/03 09:16:03;;;;;;;17.83;11.70;;;;;;;5.72;43.49;98733.75;5013311;28;20049;-58
2022/03/03 09:18:29;;;;;;;19.30;10.20;;;;;;;5.42;43.44;98730.28;5012641;28;20049;-59
2022/03/03 09:20:54;;;;;;;17.90;10.07;;;;;;;5.48;43.14;98727.75;5012120;28;20048;-60
2022/03/03 09:23:20;;;;;;;13.27;8.70;;;;;;;5.61;41.45;98731.16;5013704;28;20481;-60
2022/03/03 09:25:45;;;;;;;14.73;8.47;;;;;;;5.73;40.19;98736.28;5013507;28;20038;-60
2022/03/03 09:28:11;;;;;;;15.20;8.03;;;;;;;5.68;40.72;98730.34;5014595;28;20052;-60
2022/03/03 09:30:37;;;;;;;15.83;8.50;;;;;;;5.81;40.05;98728.69;5012718;28;20050;-59
2022/03/03 09:33:04;;;;;;;13.83;8.03;;;;;;;5.82;39.66;98710.84;5011945;28;20698;-59
2022/03/03 09:35:31;;;;;;;14.47;8.63;;;;;;;6.01;38.49;98719.41;5010402;28;20038;-58
2022/03/03 09:37:57;;;;;;;16.37;8.73;;;;;;;6.07;38.34;98716.84;5010102;28;20041;-59
2022/03/03 09:40:23;;;;;;;12.13;7.07;;;;;;;6.03;37.91;98716.84;5011547;28;20043;-60
2022/03/03 09:42:57;;;;;;;10.53;6.90;;;;;;;5.96;37.67;98714.31;5013935;28;20137;-54
2022/03/03 09:45:24;;;;;;;12.38;6.57;;;;;;;6.06;37.52;98710.06;5015680;28;20034;-57
2022/03/03 09:47:52;;;;;;;16.53;8.13;;;;;;;6.19;37.86;98708.38;5013512;28;20045;-57
2022/03/03 09:50:18;;;;;;;14.27;7.40;;;;;;;6.26;37.04;98708.38;5011991;28;20188;-57
2022/03/03 09:52:45;;;;;;;13.37;7.60;;;;;;;6.35;36.53;98705.81;5012820;28;20049;-59
2022/03/03 09:55:11;;;;;;;14.47;7.87;;;;;;;6.29;37.11;98705.81;5013045;28;20038;-59
2022/03/03 09:57:36;;;;;;;11.60;6.93;;;;;;;6.40;36.80;98701.56;5013302;28;20056;-56
2022/03/03 10:00:08;;;;;;;13.30;7.40;;;;;;;6.40;37.02;98693.94;5012188;28;20052;-56
2022/03/03 10:03:00;;;;;;;12.60;7.67;;;;;;;6.45;37.32;98693.91;5011811;28;20634;-57
2022/03/03 10:05:36;;;;;;;13.00;7.90;;;;;;;6.57;36.94;98690.50;5012365;28;20108;-59
2022/03/03 10:08:07;;;;;;;12.53;7.30;;;;;;;6.62;36.25;98692.16;5014390;28;20057;-58
2022/03/03 10:10:35;;;;;;;11.60;6.57;;;;;;;6.62;35.58;98692.16;5012672;28;20132;-59
2022/03/03 10:13:01;;;;;;;12.20;7.20;;;;;;;6.77;35.22;98686.19;5013336;28;20510;-58
2022/03/03 10:15:28;;;;;;;12.70;7.43;;;;;;;6.75;35.68;98676.00;5014983;28;20033;-59
2022/03/03 10:17:59;;;;;;;12.77;7.63;;;;;;;6.85;35.09;98671.72;5016764;28;20057;-59
2022/03/03 10:20:26;;;;;;;18.30;8.53;;;;;;;6.90;34.65;98672.56;5017747;28;20034;-56
2022/03/03 10:22:57;;;;;;;19.90;10.53;;;;;;;7.17;33.91;98676.72;5016150;28;20152;-59
2022/03/03 10:25:44;;;;;;;27.10;14.63;;;;;;;7.27;34.02;98658.78;5017137;28;20048;-60
2022/03/03 10:28:33;;;;;;;14.27;10.57;;;;;;;7.34;32.70;98660.44;5014503;28;20789;-60
2022/03/03 10:31:06;;;;;;;13.23;7.13;;;;;;;7.23;32.42;98662.22;5016556;28;20041;-60
2022/03/03 10:33:36;;;;;;;13.00;7.17;;;;;;;7.35;32.49;98649.41;5015768;28;20046;-57
2022/03/03 10:36:10;;;;;;;13.87;8.07;;;;;;;7.31;32.82;98644.31;5015866;28;20042;-58
2022/03/03 10:38:44;;;;;;;14.50;7.90;;;;;;;7.40;32.06;98651.06;5016489;28;20040;-59
2022/03/03 10:41:30;;;;;;;9.93;5.13;;;;;;;7.56;32.07;98650.97;5012940;28;20069;-58
2022/03/03 10:43:56;;;;;;;9.20;6.38;;;;;;;7.70;32.44;98638.09;5013015;28;20045;-57
2022/03/03 10:46:21;;;;;;;10.67;5.93;;;;;;;7.71;32.42;98634.72;5015499;28;20073;-58
2022/03/03 10:48:47;;;;;;;12.37;6.63;;;;;;;7.73;31.47;98633.81;5015448;28;20116;-58
2022/03/03 10:51:16;;;;;;;10.80;7.03;;;;;;;7.88;32.44;98629.47;5015201;28;20033;-57
2022/03/03 10:53:42;;;;;;;14.90;7.00;;;;;;;8.02;31.84;98625.91;5015472;28;20074;-58
2022/03/03 10:56:18;;;;;;;236.90;220.70;;;;;;;8.04;31.36;98618.25;5015292;28;20076;-60
2022/03/03 10:58:54;;;;;;;151.13;142.23;;;;;;;8.14;31.77;98615.63;5014784;28;20044;-59
2022/03/03 11:01:24;;;;;;;44.87;41.67;;;;;;;8.39;30.57;98610.28;5016115;28;20046;-59
2022/03/03 11:03:51;;;;;;;40.43;37.73;;;;;;;8.49;31.32;98607.59;5015840;28;20042;-59
2022/03/03 11:06:25;;;;;;;72.33;67.80;;;;;;;8.66;30.38;98604.84;5013512;28;20504;-58
2022/03/03 11:08:52;;;;;;;10.27;6.73;;;;;;;8.63;29.64;98607.44;5013677;28;20472;-57
2022/03/03 11:11:19;;;;;;;9.40;6.77;;;;;;;8.39;28.42;98594.97;5016703;28;20062;-56
2022/03/03 11:13:49;;;;;;;9.77;7.43;;;;;;;8.65;29.93;98596.38;5018404;28;20045;-55
2022/03/03 11:16:20;;;;;;;8.77;7.57;;;;;;;8.73;29.82;98590.31;5018649;28;20048;-58
2022/03/03 11:18:46;;;;;;;12.83;7.53;;;;;;;8.77;29.12;98587.69;5017924;28;20411;-54
2022/03/03 11:21:14;;;;;;;10.50;6.03;;;;;;;8.79;28.55;98592.75;5014633;28;20042;-56